sensor_id;sensor_type;location;lat;lon;timestamp;P1;durP1;ratioP1;P2;durP2;ratioP2
15412;SDS011;7805;49.554;7.632;2022-08-19T00:00:15;25.37;;;23.13;;
15412;SDS011;7805;49.554;7.632;2022-08-19T00:02:42;25.00;;;22.80;;
15412;SDS011;7805;49.554;7.632;2022-08-19T00:05:08;23.33;;;21.33;;
15412;SDS011;7805;49.554;7.632;2022-08-19T00:07:35;26.27;;;23.97;;
15412;SDS011;7805;49.554;7.632;2022-08-19T00:10:02;26.90;;;24.30;;
15412;SDS011;7805;49.554;7.632;2022-08-19T00:12:30;26.87;;;24.37;;
15412;SDS011;7805;49.554;7.632;2022-08-19T00:14:55;26.93;;;24.20;;
15412;SDS011;7805;49.554;7.632;2022-08-19T00:17:21;27.37;;;24.80;;
15412;SDS011;7805;49.554;7.632;2022-08-19T00:19:46;25.67;;;23.27;;
15412;SDS011;7805;49.554;7.632;2022-08-19T00:22:12;26.10;;;23.50;;
15412;SDS011;7805;49.554;7.632;2022-08-19T00:24:38;25.30;;;22.80;;
15412;SDS011;7805;49.554;7.632;2022-08-19T00:27:06;25.90;;;23.50;;
15412;SDS011;7805;49.554;7.632;2022-08-19T00:29:31;26.60;;;24.17;;
15412;SDS011;7805;49.554;7.632;2022-08-19T00:31:57;26.73;;;24.17;;
15412;SDS011;7805;49.554;7.632;2022-08-19T00:34:24;26.40;;;24.10;;
15412;SDS011;7805;49.554;7.632;2022-08-19T00:36:52;26.30;;;24.00;;
15412;SDS011;7805;49.554;7.632;2022-08-19T00:39:18;26.83;;;24.33;;
15412;SDS011;7805;49.554;7.632;2022-08-19T00:41:44;27.57;;;24.97;;
15412;SDS011;7805;49.554;7.632;2022-08-19T00:44:15;26.30;;;24.00;;
15412;SDS011;7805;49.554;7.632;2022-08-19T00:46:48;28.63;;;25.97;;
15412;SDS011;7805;49.554;7.632;2022-08-19T00:51:48;25.83;;;23.47;;
15412;SDS011;7805;49.554;7.632;2022-08-19T00:54:17;26.00;;;23.80;;
15412;SDS011;7805;49.554;7.632;2022-08-19T00:56:43;25.10;;;22.83;;
15412;SDS011;7805;49.554;7.632;2022-08-19T00:59:10;26.50;;;24.10;;
15412;SDS011;7805;49.554;7.632;2022-08-19T01:01:37;25.70;;;23.37;;
15412;SDS011;7805;49.554;7.632;2022-08-19T01:04:05;25.33;;;23.07;;
15412;SDS011;7805;49.554;7.632;2022-08-19T01:06:31;25.83;;;23.60;;
15412;SDS011;7805;49.554;7.632;2022-08-19T01:08:58;26.77;;;24.37;;
15412;SDS011;7805;49.554;7.632;2022-08-19T01:11:25;26.53;;;24.13;;
15412;SDS011;7805;49.554;7.632;2022-08-19T01:13:52;26.27;;;23.87;;
15412;SDS011;7805;49.554;7.632;2022-08-19T01:16:19;25.53;;;23.13;;
15412;SDS011;7805;49.554;7.632;2022-08-19T01:18:48;24.80;;;22.50;;
15412;SDS011;7805;49.554;7.632;2022-08-19T01:21:34;25.67;;;23.27;;
15412;SDS011;7805;49.554;7.632;2022-08-19T01:24:12;24.10;;;22.07;;
15412;SDS011;7805;49.554;7.632;2022-08-19T01:26:39;25.53;;;23.23;;
15412;SDS011;7805;49.554;7.632;2022-08-19T01:29:07;25.60;;;23.40;;
15412;SDS011;7805;49.554;7.632;2022-08-19T01:31:33;26.07;;;23.67;;
15412;SDS011;7805;49.554;7.632;2022-08-19T01:34:00;27.07;;;24.47;;
15412;SDS011;7805;49.554;7.632;2022-08-19T01:38:58;25.27;;;23.10;;
15412;SDS011;7805;49.554;7.632;2022-08-19T01:41:25;27.33;;;24.77;;
15412;SDS011;7805;49.554;7.632;2022-08-19T01:43:51;25.87;;;23.63;;
15412;SDS011;7805;49.554;7.632;2022-08-19T01:46:18;25.87;;;23.67;;
15412;SDS011;7805;49.554;7.632;2022-08-19T01:48:44;25.10;;;22.90;;
15412;SDS011;7805;49.554;7.632;2022-08-19T01:51:11;24.40;;;22.30;;
15412;SDS011;7805;49.554;7.632;2022-08-19T01:53:37;24.30;;;21.90;;
15412;SDS011;7805;49.554;7.632;2022-08-19T01:56:04;26.37;;;23.90;;
15412;SDS011;7805;49.554;7.632;2022-08-19T01:58:39;25.13;;;22.90;;
15412;SDS011;7805;49.554;7.632;2022-08-19T02:01:11;25.37;;;22.97;;
15412;SDS011;7805;49.554;7.632;2022-08-19T02:03:36;24.23;;;22.07;;
15412;SDS011;7805;49.554;7.632;2022-08-19T02:06:02;24.20;;;22.03;;
15412;SDS011;7805;49.554;7.632;2022-08-19T02:08:30;24.10;;;22.00;;
15412;SDS011;7805;49.554;7.632;2022-08-19T02:10:57;25.33;;;23.10;;
15412;SDS011;7805;49.554;7.632;2022-08-19T02:13:23;24.83;;;22.63;;
15412;SDS011;7805;49.554;7.632;2022-08-19T02:15:50;25.17;;;22.87;;
15412;SDS011;7805;49.554;7.632;2022-08-19T02:18:16;24.17;;;21.97;;
15412;SDS011;7805;49.554;7.632;2022-08-19T02:20:42;23.77;;;21.67;;
15412;SDS011;7805;49.554;7.632;2022-08-19T02:23:09;24.37;;;22.13;;
15412;SDS011;7805;49.554;7.632;2022-08-19T02:25:36;25.43;;;23.17;;
15412;SDS011;7805;49.554;7.632;2022-08-19T02:28:02;24.30;;;22.20;;
15412;SDS011;7805;49.554;7.632;2022-08-19T02:30:28;25.93;;;23.83;;
15412;SDS011;7805;49.554;7.632;2022-08-19T02:32:53;23.67;;;21.57;;
15412;SDS011;7805;49.554;7.632;2022-08-19T02:35:19;25.13;;;22.93;;
15412;SDS011;7805;49.554;7.632;2022-08-19T02:37:45;24.47;;;22.20;;
15412;SDS011;7805;49.554;7.632;2022-08-19T02:40:30;23.93;;;21.77;;
15412;SDS011;7805;49.554;7.632;2022-08-19T02:42:59;23.53;;;21.17;;
15412;SDS011;7805;49.554;7.632;2022-08-19T02:45:30;23.27;;;21.27;;
15412;SDS011;7805;49.554;7.632;2022-08-19T02:47:58;21.60;;;19.63;;
15412;SDS011;7805;49.554;7.632;2022-08-19T02:50:23;24.77;;;22.60;;
15412;SDS011;7805;49.554;7.632;2022-08-19T02:52:49;22.83;;;20.73;;
15412;SDS011;7805;49.554;7.632;2022-08-19T02:55:14;21.77;;;19.80;;
15412;SDS011;7805;49.554;7.632;2022-08-19T02:57:40;20.93;;;19.00;;
15412;SDS011;7805;49.554;7.632;2022-08-19T03:00:07;20.27;;;18.43;;
15412;SDS011;7805;49.554;7.632;2022-08-19T03:02:36;21.60;;;19.70;;
15412;SDS011;7805;49.554;7.632;2022-08-19T03:05:02;21.40;;;19.37;;
15412;SDS011;7805;49.554;7.632;2022-08-19T03:07:28;24.73;;;22.43;;
15412;SDS011;7805;49.554;7.632;2022-08-19T03:09:55;22.43;;;20.53;;
15412;SDS011;7805;49.554;7.632;2022-08-19T03:12:21;21.40;;;19.50;;
15412;SDS011;7805;49.554;7.632;2022-08-19T03:14:47;22.47;;;20.57;;
15412;SDS011;7805;49.554;7.632;2022-08-19T03:17:12;22.60;;;20.37;;
15412;SDS011;7805;49.554;7.632;2022-08-19T03:19:38;22.37;;;20.37;;
15412;SDS011;7805;49.554;7.632;2022-08-19T03:22:04;21.23;;;19.33;;
15412;SDS011;7805;49.554;7.632;2022-08-19T03:24:31;20.43;;;18.63;;
15412;SDS011;7805;49.554;7.632;2022-08-19T03:26:57;23.63;;;21.53;;
15412;SDS011;7805;49.554;7.632;2022-08-19T03:29:24;21.77;;;19.87;;
15412;SDS011;7805;49.554;7.632;2022-08-19T03:31:56;22.53;;;20.57;;
15412;SDS011;7805;49.554;7.632;2022-08-19T03:34:26;21.30;;;19.30;;
15412;SDS011;7805;49.554;7.632;2022-08-19T03:36:54;21.77;;;19.97;;
15412;SDS011;7805;49.554;7.632;2022-08-19T03:39:21;23.10;;;21.10;;
15412;SDS011;7805;49.554;7.632;2022-08-19T03:41:49;23.07;;;21.07;;
15412;SDS011;7805;49.554;7.632;2022-08-19T03:44:18;22.17;;;20.27;;
15412;SDS011;7805;49.554;7.632;2022-08-19T03:46:48;22.07;;;19.93;;
15412;SDS011;7805;49.554;7.632;2022-08-19T03:49:16;21.30;;;19.37;;
15412;SDS011;7805;49.554;7.632;2022-08-19T03:51:43;20.17;;;18.43;;
15412;SDS011;7805;49.554;7.632;2022-08-19T03:54:09;19.80;;;17.87;;
15412;SDS011;7805;49.554;7.632;2022-08-19T03:56:38;18.50;;;16.70;;
15412;SDS011;7805;49.554;7.632;2022-08-19T03:59:05;17.47;;;15.93;;
15412;SDS011;7805;49.554;7.632;2022-08-19T04:01:33;21.30;;;19.40;;
15412;SDS011;7805;49.554;7.632;2022-08-19T04:04:00;20.67;;;18.67;;
15412;SDS011;7805;49.554;7.632;2022-08-19T04:06:27;20.67;;;18.77;;
15412;SDS011;7805;49.554;7.632;2022-08-19T04:08:55;19.87;;;18.20;;
15412;SDS011;7805;49.554;7.632;2022-08-19T04:11:27;19.67;;;18.07;;
15412;SDS011;7805;49.554;7.632;2022-08-19T04:13:55;20.27;;;18.57;;
15412;SDS011;7805;49.554;7.632;2022-08-19T04:16:21;18.53;;;16.97;;
15412;SDS011;7805;49.554;7.632;2022-08-19T04:18:49;19.57;;;17.77;;
15412;SDS011;7805;49.554;7.632;2022-08-19T04:21:16;19.37;;;17.30;;
15412;SDS011;7805;49.554;7.632;2022-08-19T04:23:43;18.93;;;17.13;;
15412;SDS011;7805;49.554;7.632;2022-08-19T04:26:26;18.87;;;17.23;;
15412;SDS011;7805;49.554;7.632;2022-08-19T04:28:57;18.57;;;16.97;;
15412;SDS011;7805;49.554;7.632;2022-08-19T04:31:25;18.63;;;16.93;;
15412;SDS011;7805;49.554;7.632;2022-08-19T04:33:57;18.80;;;16.93;;
15412;SDS011;7805;49.554;7.632;2022-08-19T04:36:25;18.43;;;16.60;;
15412;SDS011;7805;49.554;7.632;2022-08-19T04:38:54;18.37;;;16.57;;
15412;SDS011;7805;49.554;7.632;2022-08-19T04:41:25;19.10;;;17.13;;
15412;SDS011;7805;49.554;7.632;2022-08-19T04:44:10;17.73;;;16.10;;
15412;SDS011;7805;49.554;7.632;2022-08-19T04:46:36;18.27;;;16.67;;
15412;SDS011;7805;49.554;7.632;2022-08-19T04:49:03;18.20;;;16.60;;
15412;SDS011;7805;49.554;7.632;2022-08-19T04:51:30;17.97;;;16.27;;
15412;SDS011;7805;49.554;7.632;2022-08-19T04:53:57;19.67;;;17.23;;
15412;SDS011;7805;49.554;7.632;2022-08-19T04:56:25;18.10;;;16.40;;
15412;SDS011;7805;49.554;7.632;2022-08-19T04:58:52;18.70;;;16.90;;
15412;SDS011;7805;49.554;7.632;2022-08-19T05:01:21;16.70;;;15.30;;
15412;SDS011;7805;49.554;7.632;2022-08-19T05:03:53;17.27;;;15.77;;
15412;SDS011;7805;49.554;7.632;2022-08-19T05:06:20;18.87;;;17.17;;
15412;SDS011;7805;49.554;7.632;2022-08-19T05:08:47;19.03;;;17.13;;
15412;SDS011;7805;49.554;7.632;2022-08-19T05:11:17;18.27;;;16.60;;
15412;SDS011;7805;49.554;7.632;2022-08-19T05:13:45;17.63;;;16.03;;
15412;SDS011;7805;49.554;7.632;2022-08-19T05:16:13;19.17;;;17.37;;
15412;SDS011;7805;49.554;7.632;2022-08-19T05:18:40;20.77;;;18.77;;
15412;SDS011;7805;49.554;7.632;2022-08-19T05:21:25;17.50;;;16.00;;
15412;SDS011;7805;49.554;7.632;2022-08-19T05:24:10;17.57;;;16.07;;
15412;SDS011;7805;49.554;7.632;2022-08-19T05:26:36;17.23;;;15.43;;
15412;SDS011;7805;49.554;7.632;2022-08-19T05:29:02;16.80;;;15.20;;
15412;SDS011;7805;49.554;7.632;2022-08-19T05:31:28;16.57;;;15.07;;
15412;SDS011;7805;49.554;7.632;2022-08-19T05:33:54;16.80;;;15.30;;
15412;SDS011;7805;49.554;7.632;2022-08-19T05:36:20;16.80;;;15.20;;
15412;SDS011;7805;49.554;7.632;2022-08-19T05:38:46;16.10;;;14.60;;
15412;SDS011;7805;49.554;7.632;2022-08-19T05:41:13;18.87;;;15.20;;
15412;SDS011;7805;49.554;7.632;2022-08-19T05:43:40;16.60;;;15.10;;
15412;SDS011;7805;49.554;7.632;2022-08-19T05:46:06;18.03;;;16.23;;
15412;SDS011;7805;49.554;7.632;2022-08-19T05:48:35;20.30;;;15.63;;
15412;SDS011;7805;49.554;7.632;2022-08-19T05:51:06;24.00;;;15.77;;
15412;SDS011;7805;49.554;7.632;2022-08-19T05:53:34;20.27;;;15.27;;
15412;SDS011;7805;49.554;7.632;2022-08-19T05:56:07;17.63;;;15.63;;
15412;SDS011;7805;49.554;7.632;2022-08-19T05:58:35;16.20;;;14.53;;
15412;SDS011;7805;49.554;7.632;2022-08-19T06:01:01;17.00;;;15.20;;
15412;SDS011;7805;49.554;7.632;2022-08-19T06:03:33;15.53;;;14.13;;
15412;SDS011;7805;49.554;7.632;2022-08-19T06:05:59;14.37;;;13.17;;
15412;SDS011;7805;49.554;7.632;2022-08-19T06:08:25;15.93;;;14.47;;
15412;SDS011;7805;49.554;7.632;2022-08-19T06:10:52;15.20;;;13.87;;
15412;SDS011;7805;49.554;7.632;2022-08-19T06:13:18;14.77;;;13.27;;
15412;SDS011;7805;49.554;7.632;2022-08-19T06:15:44;14.13;;;12.90;;
15412;SDS011;7805;49.554;7.632;2022-08-19T06:18:11;15.53;;;14.03;;
15412;SDS011;7805;49.554;7.632;2022-08-19T06:20:38;15.13;;;13.47;;
15412;SDS011;7805;49.554;7.632;2022-08-19T06:23:04;14.77;;;13.47;;
15412;SDS011;7805;49.554;7.632;2022-08-19T06:25:30;12.93;;;11.87;;
15412;SDS011;7805;49.554;7.632;2022-08-19T06:27:55;12.23;;;11.13;;
15412;SDS011;7805;49.554;7.632;2022-08-19T06:30:21;13.13;;;11.93;;
15412;SDS011;7805;49.554;7.632;2022-08-19T06:32:46;15.05;;;13.25;;
15412;SDS011;7805;49.554;7.632;2022-08-19T06:35:12;15.02;;;12.70;;
15412;SDS011;7805;49.554;7.632;2022-08-19T06:37:39;12.27;;;11.27;;
15412;SDS011;7805;49.554;7.632;2022-08-19T06:40:06;13.52;;;12.30;;
15412;SDS011;7805;49.554;7.632;2022-08-19T06:42:34;12.75;;;11.45;;
15412;SDS011;7805;49.554;7.632;2022-08-19T06:45:00;11.02;;;10.02;;
15412;SDS011;7805;49.554;7.632;2022-08-19T06:47:28;11.00;;;10.00;;
15412;SDS011;7805;49.554;7.632;2022-08-19T06:49:56;11.90;;;10.40;;
15412;SDS011;7805;49.554;7.632;2022-08-19T06:52:30;12.52;;;10.60;;
15412;SDS011;7805;49.554;7.632;2022-08-19T06:54:58;14.05;;;10.55;;
15412;SDS011;7805;49.554;7.632;2022-08-19T06:57:24;10.80;;;10.00;;
15412;SDS011;7805;49.554;7.632;2022-08-19T06:59:51;10.23;;;9.25;;
15412;SDS011;7805;49.554;7.632;2022-08-19T07:02:17;9.68;;;8.93;;
15412;SDS011;7805;49.554;7.632;2022-08-19T07:04:44;13.38;;;10.10;;
15412;SDS011;7805;49.554;7.632;2022-08-19T07:07:10;11.88;;;10.10;;
15412;SDS011;7805;49.554;7.632;2022-08-19T07:09:39;11.43;;;9.93;;
15412;SDS011;7805;49.554;7.632;2022-08-19T07:12:07;13.13;;;11.82;;
15412;SDS011;7805;49.554;7.632;2022-08-19T07:14:38;13.18;;;11.98;;
15412;SDS011;7805;49.554;7.632;2022-08-19T07:17:05;11.43;;;10.02;;
15412;SDS011;7805;49.554;7.632;2022-08-19T07:19:36;11.80;;;10.38;;
15412;SDS011;7805;49.554;7.632;2022-08-19T07:22:03;12.55;;;11.35;;
15412;SDS011;7805;49.554;7.632;2022-08-19T07:24:32;12.48;;;11.38;;
15412;SDS011;7805;49.554;7.632;2022-08-19T07:27:00;13.23;;;11.95;;
15412;SDS011;7805;49.554;7.632;2022-08-19T07:29:28;13.43;;;11.57;;
15412;SDS011;7805;49.554;7.632;2022-08-19T07:31:58;15.52;;;13.13;;
15412;SDS011;7805;49.554;7.632;2022-08-19T07:34:24;13.50;;;12.20;;
15412;SDS011;7805;49.554;7.632;2022-08-19T07:36:51;13.25;;;11.82;;
15412;SDS011;7805;49.554;7.632;2022-08-19T07:39:20;14.40;;;12.93;;
15412;SDS011;7805;49.554;7.632;2022-08-19T07:41:51;14.13;;;12.85;;
15412;SDS011;7805;49.554;7.632;2022-08-19T07:44:17;12.40;;;11.32;;
15412;SDS011;7805;49.554;7.632;2022-08-19T07:46:46;12.45;;;11.35;;
15412;SDS011;7805;49.554;7.632;2022-08-19T07:49:15;14.50;;;11.85;;
15412;SDS011;7805;49.554;7.632;2022-08-19T07:51:48;11.93;;;10.82;;
15412;SDS011;7805;49.554;7.632;2022-08-19T07:54:22;13.73;;;12.32;;
15412;SDS011;7805;49.554;7.632;2022-08-19T07:56:50;13.60;;;12.38;;
15412;SDS011;7805;49.554;7.632;2022-08-19T07:59:16;12.73;;;11.52;;
15412;SDS011;7805;49.554;7.632;2022-08-19T08:01:43;15.77;;;13.50;;
15412;SDS011;7805;49.554;7.632;2022-08-19T08:04:09;15.20;;;13.57;;
15412;SDS011;7805;49.554;7.632;2022-08-19T08:06:53;15.38;;;13.93;;
15412;SDS011;7805;49.554;7.632;2022-08-19T08:09:39;16.15;;;14.52;;
15412;SDS011;7805;49.554;7.632;2022-08-19T08:12:08;14.95;;;13.55;;
15412;SDS011;7805;49.554;7.632;2022-08-19T08:14:50;17.40;;;14.95;;
15412;SDS011;7805;49.554;7.632;2022-08-19T08:17:18;14.18;;;12.98;;
15412;SDS011;7805;49.554;7.632;2022-08-19T08:19:45;15.18;;;12.23;;
15412;SDS011;7805;49.554;7.632;2022-08-19T08:22:13;13.52;;;12.30;;
15412;SDS011;7805;49.554;7.632;2022-08-19T08:25:06;14.00;;;12.70;;
15412;SDS011;7805;49.554;7.632;2022-08-19T08:27:41;13.52;;;12.05;;
15412;SDS011;7805;49.554;7.632;2022-08-19T08:30:12;14.73;;;13.32;;
15412;SDS011;7805;49.554;7.632;2022-08-19T08:32:40;13.38;;;12.27;;
15412;SDS011;7805;49.554;7.632;2022-08-19T08:35:07;12.10;;;10.70;;
15412;SDS011;7805;49.554;7.632;2022-08-19T08:37:36;13.00;;;11.70;;
15412;SDS011;7805;49.554;7.632;2022-08-19T08:40:03;11.63;;;10.68;;
15412;SDS011;7805;49.554;7.632;2022-08-19T08:42:34;12.43;;;11.18;;
15412;SDS011;7805;49.554;7.632;2022-08-19T08:45:08;11.43;;;10.40;;
15412;SDS011;7805;49.554;7.632;2022-08-19T08:47:40;10.95;;;10.07;;
15412;SDS011;7805;49.554;7.632;2022-08-19T08:50:16;9.95;;;9.02;;
15412;SDS011;7805;49.554;7.632;2022-08-19T08:53:05;9.05;;;8.25;;
15412;SDS011;7805;49.554;7.632;2022-08-19T08:55:33;8.95;;;8.15;;
15412;SDS011;7805;49.554;7.632;2022-08-19T08:58:01;7.70;;;7.00;;
15412;SDS011;7805;49.554;7.632;2022-08-19T09:00:33;7.68;;;6.88;;
15412;SDS011;7805;49.554;7.632;2022-08-19T09:03:01;6.40;;;5.90;;
15412;SDS011;7805;49.554;7.632;2022-08-19T09:05:48;6.50;;;6.00;;
15412;SDS011;7805;49.554;7.632;2022-08-19T09:11:12;7.38;;;6.68;;
15412;SDS011;7805;49.554;7.632;2022-08-19T09:13:58;8.05;;;7.35;;
15412;SDS011;7805;49.554;7.632;2022-08-19T09:16:46;8.43;;;7.80;;
15412;SDS011;7805;49.554;7.632;2022-08-19T09:19:13;7.72;;;7.07;;
15412;SDS011;7805;49.554;7.632;2022-08-19T09:21:38;7.53;;;6.85;;
15412;SDS011;7805;49.554;7.632;2022-08-19T09:24:04;7.30;;;6.72;;
15412;SDS011;7805;49.554;7.632;2022-08-19T09:26:31;8.05;;;7.35;;
15412;SDS011;7805;49.554;7.632;2022-08-19T09:28:58;9.20;;;8.40;;
15412;SDS011;7805;49.554;7.632;2022-08-19T09:31:25;8.55;;;7.65;;
15412;SDS011;7805;49.554;7.632;2022-08-19T09:33:53;8.00;;;7.30;;
15412;SDS011;7805;49.554;7.632;2022-08-19T09:36:22;7.53;;;7.00;;
15412;SDS011;7805;49.554;7.632;2022-08-19T09:38:49;7.45;;;6.75;;
15412;SDS011;7805;49.554;7.632;2022-08-19T09:41:18;6.38;;;5.95;;
15412;SDS011;7805;49.554;7.632;2022-08-19T09:43:46;7.55;;;6.95;;
15412;SDS011;7805;49.554;7.632;2022-08-19T09:46:17;7.82;;;6.55;;
15412;SDS011;7805;49.554;7.632;2022-08-19T09:48:44;6.95;;;6.35;;
15412;SDS011;7805;49.554;7.632;2022-08-19T09:51:12;6.80;;;6.25;;
15412;SDS011;7805;49.554;7.632;2022-08-19T09:53:42;6.95;;;6.25;;
15412;SDS011;7805;49.554;7.632;2022-08-19T09:56:09;6.53;;;5.95;;
15412;SDS011;7805;49.554;7.632;2022-08-19T09:58:35;6.47;;;5.32;;
15412;SDS011;7805;49.554;7.632;2022-08-19T10:01:02;5.55;;;5.15;;
15412;SDS011;7805;49.554;7.632;2022-08-19T10:03:29;5.43;;;5.00;;
15412;SDS011;7805;49.554;7.632;2022-08-19T10:05:56;5.43;;;4.95;;
15412;SDS011;7805;49.554;7.632;2022-08-19T10:08:24;5.45;;;5.10;;
15412;SDS011;7805;49.554;7.632;2022-08-19T10:10:53;5.47;;;5.03;;
15412;SDS011;7805;49.554;7.632;2022-08-19T10:13:21;4.80;;;4.38;;
15412;SDS011;7805;49.554;7.632;2022-08-19T10:15:50;4.10;;;3.90;;
15412;SDS011;7805;49.554;7.632;2022-08-19T10:18:21;5.80;;;4.60;;
15412;SDS011;7805;49.554;7.632;2022-08-19T10:20:49;5.43;;;5.03;;
15412;SDS011;7805;49.554;7.632;2022-08-19T10:23:16;5.45;;;5.05;;
15412;SDS011;7805;49.554;7.632;2022-08-19T10:25:42;4.63;;;4.30;;
15412;SDS011;7805;49.554;7.632;2022-08-19T10:28:08;3.95;;;3.70;;
15412;SDS011;7805;49.554;7.632;2022-08-19T10:30:37;3.90;;;3.60;;
15412;SDS011;7805;49.554;7.632;2022-08-19T10:33:06;4.30;;;3.90;;
15412;SDS011;7805;49.554;7.632;2022-08-19T10:35:32;4.47;;;4.18;;
15412;SDS011;7805;49.554;7.632;2022-08-19T10:37:58;3.95;;;3.75;;
15412;SDS011;7805;49.554;7.632;2022-08-19T10:40:24;4.40;;;4.05;;
15412;SDS011;7805;49.554;7.632;2022-08-19T10:42:52;4.43;;;4.03;;
15412;SDS011;7805;49.554;7.632;2022-08-19T10:45:18;4.10;;;3.80;;
15412;SDS011;7805;49.554;7.632;2022-08-19T10:47:44;4.55;;;4.20;;
15412;SDS011;7805;49.554;7.632;2022-08-19T10:50:09;3.95;;;3.60;;
15412;SDS011;7805;49.554;7.632;2022-08-19T10:52:53;3.72;;;3.42;;
15412;SDS011;7805;49.554;7.632;2022-08-19T10:55:20;4.10;;;3.80;;
15412;SDS011;7805;49.554;7.632;2022-08-19T10:58:09;3.80;;;3.60;;
15412;SDS011;7805;49.554;7.632;2022-08-19T11:00:36;3.70;;;3.50;;
15412;SDS011;7805;49.554;7.632;2022-08-19T11:03:02;5.40;;;3.78;;
15412;SDS011;7805;49.554;7.632;2022-08-19T11:05:27;4.07;;;3.75;;
15412;SDS011;7805;49.554;7.632;2022-08-19T11:07:53;3.97;;;3.70;;
15412;SDS011;7805;49.554;7.632;2022-08-19T11:10:18;4.35;;;4.05;;
15412;SDS011;7805;49.554;7.632;2022-08-19T11:12:44;4.25;;;3.95;;
15412;SDS011;7805;49.554;7.632;2022-08-19T11:15:11;3.92;;;3.67;;
15412;SDS011;7805;49.554;7.632;2022-08-19T11:17:37;4.25;;;3.92;;
15412;SDS011;7805;49.554;7.632;2022-08-19T11:20:08;4.82;;;3.90;;
15412;SDS011;7805;49.554;7.632;2022-08-19T11:22:38;4.10;;;3.88;;
15412;SDS011;7805;49.554;7.632;2022-08-19T11:25:05;4.03;;;3.80;;
15412;SDS011;7805;49.554;7.632;2022-08-19T11:27:32;4.20;;;3.97;;
15412;SDS011;7805;49.554;7.632;2022-08-19T11:29:58;4.00;;;3.80;;
15412;SDS011;7805;49.554;7.632;2022-08-19T11:32:24;4.30;;;4.00;;
15412;SDS011;7805;49.554;7.632;2022-08-19T11:34:50;4.03;;;3.72;;
15412;SDS011;7805;49.554;7.632;2022-08-19T11:37:15;5.07;;;4.78;;
15412;SDS011;7805;49.554;7.632;2022-08-19T11:39:41;4.68;;;4.25;;
15412;SDS011;7805;49.554;7.632;2022-08-19T11:42:06;4.30;;;4.00;;
15412;SDS011;7805;49.554;7.632;2022-08-19T11:44:52;4.68;;;4.03;;
15412;SDS011;7805;49.554;7.632;2022-08-19T11:47:18;4.20;;;4.00;;
15412;SDS011;7805;49.554;7.632;2022-08-19T11:49:45;4.40;;;4.05;;
15412;SDS011;7805;49.554;7.632;2022-08-19T11:52:11;4.38;;;3.90;;
15412;SDS011;7805;49.554;7.632;2022-08-19T11:54:37;4.40;;;3.83;;
15412;SDS011;7805;49.554;7.632;2022-08-19T11:57:03;5.18;;;4.72;;
15412;SDS011;7805;49.554;7.632;2022-08-19T11:59:29;4.80;;;4.07;;
15412;SDS011;7805;49.554;7.632;2022-08-19T12:01:54;3.95;;;3.75;;
15412;SDS011;7805;49.554;7.632;2022-08-19T12:04:20;4.00;;;3.80;;
15412;SDS011;7805;49.554;7.632;2022-08-19T12:06:46;4.38;;;3.97;;
15412;SDS011;7805;49.554;7.632;2022-08-19T12:09:12;4.70;;;4.32;;
15412;SDS011;7805;49.554;7.632;2022-08-19T12:11:39;4.68;;;3.92;;
15412;SDS011;7805;49.554;7.632;2022-08-19T12:14:05;4.78;;;4.47;;
15412;SDS011;7805;49.554;7.632;2022-08-19T12:16:32;4.30;;;3.90;;
15412;SDS011;7805;49.554;7.632;2022-08-19T12:18:57;4.43;;;4.10;;
15412;SDS011;7805;49.554;7.632;2022-08-19T12:21:28;3.92;;;3.42;;
15412;SDS011;7805;49.554;7.632;2022-08-19T12:23:55;3.85;;;3.65;;
15412;SDS011;7805;49.554;7.632;2022-08-19T12:26:23;3.90;;;3.53;;
15412;SDS011;7805;49.554;7.632;2022-08-19T12:28:50;4.43;;;4.03;;
15412;SDS011;7805;49.554;7.632;2022-08-19T12:31:15;4.07;;;3.80;;
15412;SDS011;7805;49.554;7.632;2022-08-19T12:33:42;4.57;;;3.83;;
15412;SDS011;7805;49.554;7.632;2022-08-19T12:36:09;4.20;;;3.85;;
15412;SDS011;7805;49.554;7.632;2022-08-19T12:38:37;4.13;;;3.92;;
15412;SDS011;7805;49.554;7.632;2022-08-19T12:41:03;4.35;;;4.05;;
15412;SDS011;7805;49.554;7.632;2022-08-19T12:43:31;4.38;;;3.90;;
15412;SDS011;7805;49.554;7.632;2022-08-19T12:45:57;4.57;;;4.28;;
15412;SDS011;7805;49.554;7.632;2022-08-19T12:48:23;4.00;;;3.80;;
15412;SDS011;7805;49.554;7.632;2022-08-19T12:50:48;5.95;;;4.25;;
15412;SDS011;7805;49.554;7.632;2022-08-19T12:53:14;4.80;;;4.50;;
15412;SDS011;7805;49.554;7.632;2022-08-19T12:55:40;4.82;;;4.32;;
15412;SDS011;7805;49.554;7.632;2022-08-19T12:58:07;5.25;;;4.80;;
15412;SDS011;7805;49.554;7.632;2022-08-19T13:00:33;4.60;;;4.20;;
15412;SDS011;7805;49.554;7.632;2022-08-19T13:02:59;4.97;;;4.57;;
15412;SDS011;7805;49.554;7.632;2022-08-19T13:05:29;5.35;;;4.85;;
15412;SDS011;7805;49.554;7.632;2022-08-19T13:07:57;4.72;;;4.32;;
15412;SDS011;7805;49.554;7.632;2022-08-19T13:10:26;6.28;;;4.85;;
15412;SDS011;7805;49.554;7.632;2022-08-19T13:12:54;4.25;;;4.05;;
15412;SDS011;7805;49.554;7.632;2022-08-19T13:15:20;5.03;;;4.72;;
15412;SDS011;7805;49.554;7.632;2022-08-19T13:17:47;6.18;;;4.18;;
15412;SDS011;7805;49.554;7.632;2022-08-19T13:20:15;4.35;;;4.05;;
15412;SDS011;7805;49.554;7.632;2022-08-19T13:22:41;4.72;;;4.38;;
15412;SDS011;7805;49.554;7.632;2022-08-19T13:25:09;3.83;;;3.60;;
15412;SDS011;7805;49.554;7.632;2022-08-19T13:27:35;3.92;;;3.72;;
15412;SDS011;7805;49.554;7.632;2022-08-19T13:30:02;4.47;;;4.07;;
15412;SDS011;7805;49.554;7.632;2022-08-19T13:32:47;5.85;;;5.32;;
15412;SDS011;7805;49.554;7.632;2022-08-19T13:35:31;4.90;;;4.50;;
15412;SDS011;7805;49.554;7.632;2022-08-19T13:37:57;4.28;;;3.97;;
15412;SDS011;7805;49.554;7.632;2022-08-19T13:40:23;4.40;;;4.10;;
15412;SDS011;7805;49.554;7.632;2022-08-19T13:42:51;4.53;;;4.22;;
15412;SDS011;7805;49.554;7.632;2022-08-19T13:45:19;6.03;;;3.78;;
15412;SDS011;7805;49.554;7.632;2022-08-19T13:47:48;4.47;;;4.07;;
15412;SDS011;7805;49.554;7.632;2022-08-19T13:50:16;4.25;;;3.95;;
15412;SDS011;7805;49.554;7.632;2022-08-19T13:52:43;4.30;;;3.90;;
15412;SDS011;7805;49.554;7.632;2022-08-19T13:55:10;4.18;;;3.88;;
15412;SDS011;7805;49.554;7.632;2022-08-19T13:57:37;3.90;;;3.60;;
15412;SDS011;7805;49.554;7.632;2022-08-19T14:00:08;4.97;;;4.57;;
15412;SDS011;7805;49.554;7.632;2022-08-19T14:02:36;4.40;;;4.15;;
15412;SDS011;7805;49.554;7.632;2022-08-19T14:05:03;5.00;;;4.53;;
15412;SDS011;7805;49.554;7.632;2022-08-19T14:07:31;6.07;;;5.68;;
15412;SDS011;7805;49.554;7.632;2022-08-19T14:09:56;5.13;;;4.72;;
15412;SDS011;7805;49.554;7.632;2022-08-19T14:12:22;5.10;;;4.68;;
15412;SDS011;7805;49.554;7.632;2022-08-19T14:14:48;5.40;;;4.90;;
15412;SDS011;7805;49.554;7.632;2022-08-19T14:17:14;5.13;;;4.70;;
15412;SDS011;7805;49.554;7.632;2022-08-19T14:19:40;5.35;;;4.95;;
15412;SDS011;7805;49.554;7.632;2022-08-19T14:22:06;5.07;;;4.75;;
15412;SDS011;7805;49.554;7.632;2022-08-19T14:24:32;5.72;;;5.32;;
15412;SDS011;7805;49.554;7.632;2022-08-19T14:26:58;5.03;;;4.72;;
15412;SDS011;7805;49.554;7.632;2022-08-19T14:29:24;5.18;;;4.70;;
15412;SDS011;7805;49.554;7.632;2022-08-19T14:31:52;5.18;;;4.80;;
15412;SDS011;7805;49.554;7.632;2022-08-19T14:34:17;5.63;;;4.80;;
15412;SDS011;7805;49.554;7.632;2022-08-19T14:36:43;4.80;;;4.35;;
15412;SDS011;7805;49.554;7.632;2022-08-19T14:39:10;5.63;;;4.50;;
15412;SDS011;7805;49.554;7.632;2022-08-19T14:41:36;4.28;;;3.97;;
15412;SDS011;7805;49.554;7.632;2022-08-19T14:44:05;5.07;;;4.38;;
15412;SDS011;7805;49.554;7.632;2022-08-19T14:46:31;4.55;;;4.22;;
15412;SDS011;7805;49.554;7.632;2022-08-19T14:48:56;4.50;;;4.22;;
15412;SDS011;7805;49.554;7.632;2022-08-19T14:51:23;4.28;;;4.05;;
15412;SDS011;7805;49.554;7.632;2022-08-19T14:53:51;4.65;;;4.35;;
15412;SDS011;7805;49.554;7.632;2022-08-19T14:56:19;4.80;;;4.50;;
15412;SDS011;7805;49.554;7.632;2022-08-19T14:58:46;4.88;;;4.55;;